sensor_id;sensor_type;location;lat;lon;timestamp;pressure;altitude;pressure_sealevel;temperature;humidity
64821;BME280;51256;55.654;37.264;2022-08-18T00:01:42;99323.94;;;22.76;45.62
64821;BME280;51256;55.654;37.264;2022-08-18T00:04:10;99326.41;;;22.78;45.47
64821;BME280;51256;55.654;37.264;2022-08-18T00:06:36;99315.66;;;22.71;45.53
64821;BME280;51256;55.654;37.264;2022-08-18T00:09:04;99338.66;;;22.80;45.80
64821;BME280;51256;55.654;37.264;2022-08-18T00:11:39;99338.03;;;22.78;45.62
64821;BME280;51256;55.654;37.264;2022-08-18T00:14:08;99347.44;;;22.76;45.83
64821;BME280;51256;55.654;37.264;2022-08-18T00:16:35;99338.38;;;22.70;46.02
64821;BME280;51256;55.654;37.264;2022-08-18T00:19:01;99329.72;;;22.61;46.04
64821;BME280;51256;55.654;37.264;2022-08-18T00:21:27;99334.28;;;22.61;46.21
64821;BME280;51256;55.654;37.264;2022-08-18T00:23:53;99346.78;;;22.62;46.27
64821;BME280;51256;55.654;37.264;2022-08-18T00:26:18;99335.53;;;22.46;46.43
64821;BME280;51256;55.654;37.264;2022-08-18T00:28:44;99354.00;;;22.49;46.60
64821;BME280;51256;55.654;37.264;2022-08-18T00:31:09;99352.19;;;22.43;46.59
64821;BME280;51256;55.654;37.264;2022-08-18T00:33:35;99357.81;;;22.42;46.72
64821;BME280;51256;55.654;37.264;2022-08-18T00:36:00;99348.91;;;22.34;46.88
64821;BME280;51256;55.654;37.264;2022-08-18T00:38:26;99350.81;;;22.34;46.94
64821;BME280;51256;55.654;37.264;2022-08-18T00:40:53;99353.38;;;22.29;47.06
64821;BME280;51256;55.654;37.264;2022-08-18T00:43:44;99352.97;;;22.25;47.00
64821;BME280;51256;55.654;37.264;2022-08-18T00:46:20;99344.31;;;22.16;47.26
64821;BME280;51256;55.654;37.264;2022-08-18T00:48:46;99336.28;;;22.10;47.66
64821;BME280;51256;55.654;37.264;2022-08-18T00:56:29;99351.00;;;22.14;47.21
64821;BME280;51256;55.654;37.264;2022-08-18T00:59:03;99332.06;;;21.95;47.82
64821;BME280;51256;55.654;37.264;2022-08-18T01:01:31;99356.50;;;22.07;47.62
64821;BME280;51256;55.654;37.264;2022-08-18T01:04:03;99357.91;;;22.10;47.95
64821;BME280;51256;55.654;37.264;2022-08-18T01:06:43;99360.66;;;22.03;47.79
64821;BME280;51256;55.654;37.264;2022-08-18T01:09:11;99357.53;;;22.06;48.18
64821;BME280;51256;55.654;37.264;2022-08-18T01:11:37;99362.31;;;22.04;48.32
64821;BME280;51256;55.654;37.264;2022-08-18T01:14:07;99350.97;;;21.95;48.51
64821;BME280;51256;55.654;37.264;2022-08-18T01:16:34;99345.03;;;21.86;48.84
64821;BME280;51256;55.654;37.264;2022-08-18T01:19:18;99345.66;;;21.82;49.05
64821;BME280;51256;55.654;37.264;2022-08-18T01:22:12;99354.63;;;21.82;49.17
64821;BME280;51256;55.654;37.264;2022-08-18T01:24:39;99350.53;;;21.73;49.15
64821;BME280;51256;55.654;37.264;2022-08-18T01:27:42;99352.63;;;21.71;49.22
64821;BME280;51256;55.654;37.264;2022-08-18T01:30:12;99361.34;;;21.73;49.25
64821;BME280;51256;55.654;37.264;2022-08-18T01:32:38;99346.69;;;21.62;49.27
64821;BME280;51256;55.654;37.264;2022-08-18T01:35:06;99365.06;;;21.72;49.50
64821;BME280;51256;55.654;37.264;2022-08-18T01:37:34;99348.53;;;21.62;49.63
64821;BME280;51256;55.654;37.264;2022-08-18T01:39:59;99342.25;;;21.68;49.59
64821;BME280;51256;55.654;37.264;2022-08-18T01:42:29;99352.63;;;21.71;49.70
64821;BME280;51256;55.654;37.264;2022-08-18T01:44:54;99344.78;;;21.63;49.88
64821;BME280;51256;55.654;37.264;2022-08-18T01:47:21;99348.38;;;21.57;49.85
64821;BME280;51256;55.654;37.264;2022-08-18T01:49:47;99360.19;;;21.62;50.06
64821;BME280;51256;55.654;37.264;2022-08-18T01:52:17;99365.63;;;21.56;49.89
64821;BME280;51256;55.654;37.264;2022-08-18T01:54:45;99371.22;;;21.54;49.93
64821;BME280;51256;55.654;37.264;2022-08-18T01:57:11;99368.56;;;21.47;50.13
64821;BME280;51256;55.654;37.264;2022-08-18T01:59:40;99370.22;;;21.48;50.32
64821;BME280;51256;55.654;37.264;2022-08-18T02:02:05;99366.06;;;21.46;50.26
64821;BME280;51256;55.654;37.264;2022-08-18T02:04:32;99372.31;;;21.46;50.34
64821;BME280;51256;55.654;37.264;2022-08-18T02:06:59;99372.97;;;21.42;50.56
64821;BME280;51256;55.654;37.264;2022-08-18T02:09:27;99378.56;;;21.40;50.74
64821;BME280;51256;55.654;37.264;2022-08-18T02:11:53;99375.09;;;21.33;50.63
64821;BME280;51256;55.654;37.264;2022-08-18T02:14:18;99392.72;;;21.35;50.76
64821;BME280;51256;55.654;37.264;2022-08-18T02:16:44;99406.00;;;21.37;50.86
64821;BME280;51256;55.654;37.264;2022-08-18T02:19:10;99392.31;;;21.32;50.81
64821;BME280;51256;55.654;37.264;2022-08-18T02:21:36;99389.03;;;21.30;50.82
64821;BME280;51256;55.654;37.264;2022-08-18T02:24:02;99385.31;;;21.24;50.75
64821;BME280;51256;55.654;37.264;2022-08-18T02:26:28;99395.69;;;21.27;51.00
64821;BME280;51256;55.654;37.264;2022-08-18T02:28:54;99393.81;;;21.28;50.90
64821;BME280;51256;55.654;37.264;2022-08-18T02:31:22;99396.72;;;21.26;51.10
64821;BME280;51256;55.654;37.264;2022-08-18T02:33:49;99398.22;;;21.22;51.34
64821;BME280;51256;55.654;37.264;2022-08-18T02:36:15;99406.91;;;21.24;51.37
64821;BME280;51256;55.654;37.264;2022-08-18T02:38:41;99401.50;;;21.24;51.36
64821;BME280;51256;55.654;37.264;2022-08-18T02:41:09;99400.69;;;21.24;51.36
64821;BME280;51256;55.654;37.264;2022-08-18T02:43:36;99404.22;;;21.24;51.56
64821;BME280;51256;55.654;37.264;2022-08-18T02:46:03;99406.31;;;21.22;51.86
64821;BME280;51256;55.654;37.264;2022-08-18T02:48:30;99400.28;;;21.20;51.71
64821;BME280;51256;55.654;37.264;2022-08-18T02:51:10;99394.50;;;21.16;51.56
64821;BME280;51256;55.654;37.264;2022-08-18T02:53:37;99392.84;;;21.15;51.67
64821;BME280;51256;55.654;37.264;2022-08-18T02:56:19;99406.03;;;21.30;51.56
64821;BME280;51256;55.654;37.264;2022-08-18T02:59:04;99404.16;;;21.37;51.74
64821;BME280;51256;55.654;37.264;2022-08-18T03:01:32;99402.25;;;21.45;51.50
64821;BME280;51256;55.654;37.264;2022-08-18T03:03:58;99400.72;;;21.56;51.30
64821;BME280;51256;55.654;37.264;2022-08-18T03:06:26;99385.16;;;21.58;51.06
64821;BME280;51256;55.654;37.264;2022-08-18T03:08:52;99400.19;;;21.72;50.96
64821;BME280;51256;55.654;37.264;2022-08-18T03:11:25;99398.13;;;21.74;50.67
64821;BME280;51256;55.654;37.264;2022-08-18T03:13:51;99388.31;;;21.80;50.69
64821;BME280;51256;55.654;37.264;2022-08-18T03:16:17;99391.56;;;21.89;50.60
64821;BME280;51256;55.654;37.264;2022-08-18T03:18:44;99382.19;;;21.91;50.39
64821;BME280;51256;55.654;37.264;2022-08-18T03:21:18;99391.69;;;22.00;50.29
64821;BME280;51256;55.654;37.264;2022-08-18T03:23:48;99382.34;;;21.96;50.30
64821;BME280;51256;55.654;37.264;2022-08-18T03:26:16;99373.75;;;22.06;50.31
64821;BME280;51256;55.654;37.264;2022-08-18T03:28:45;99384.50;;;22.13;50.27
64821;BME280;51256;55.654;37.264;2022-08-18T03:31:12;99373.13;;;22.04;50.39
64821;BME280;51256;55.654;37.264;2022-08-18T03:33:39;99366.72;;;21.98;50.35
64821;BME280;51256;55.654;37.264;2022-08-18T03:36:09;99387.69;;;22.03;50.41
64821;BME280;51256;55.654;37.264;2022-08-18T03:38:37;99364.97;;;21.85;50.34
64821;BME280;51256;55.654;37.264;2022-08-18T03:41:04;99379.34;;;21.86;50.76
64821;BME280;51256;55.654;37.264;2022-08-18T03:43:30;99381.25;;;21.79;50.76
64821;BME280;51256;55.654;37.264;2022-08-18T03:46:03;99381.91;;;21.74;50.55
64821;BME280;51256;55.654;37.264;2022-08-18T03:48:29;99385.94;;;21.65;51.01
64821;BME280;51256;55.654;37.264;2022-08-18T03:51:02;99386.97;;;21.64;51.30
64821;BME280;51256;55.654;37.264;2022-08-18T03:53:27;99384.91;;;21.59;51.36
64821;BME280;51256;55.654;37.264;2022-08-18T03:55:53;99385.38;;;21.56;51.37
64821;BME280;51256;55.654;37.264;2022-08-18T03:58:18;99390.94;;;21.54;51.73
64821;BME280;51256;55.654;37.264;2022-08-18T04:00:44;99393.47;;;21.49;51.70
64821;BME280;51256;55.654;37.264;2022-08-18T04:03:09;99386.03;;;21.45;51.74
64821;BME280;51256;55.654;37.264;2022-08-18T04:05:38;99389.38;;;21.40;51.72
64821;BME280;51256;55.654;37.264;2022-08-18T04:08:04;99399.94;;;21.48;51.96
64821;BME280;51256;55.654;37.264;2022-08-18T04:10:31;99394.53;;;21.48;52.06
64821;BME280;51256;55.654;37.264;2022-08-18T04:12:57;99397.25;;;21.48;51.96
64821;BME280;51256;55.654;37.264;2022-08-18T04:15:23;99390.19;;;21.47;52.05
64821;BME280;51256;55.654;37.264;2022-08-18T04:17:49;99398.88;;;21.56;52.04
64821;BME280;51256;55.654;37.264;2022-08-18T04:20:15;99392.63;;;21.56;51.93
64821;BME280;51256;55.654;37.264;2022-08-18T04:22:40;99403.41;;;21.62;51.89
64821;BME280;51256;55.654;37.264;2022-08-18T04:25:08;99404.78;;;21.72;51.79
64821;BME280;51256;55.654;37.264;2022-08-18T04:27:35;99390.63;;;21.76;51.54
64821;BME280;51256;55.654;37.264;2022-08-18T04:30:01;99399.88;;;21.87;51.39
64821;BME280;51256;55.654;37.264;2022-08-18T04:32:29;99403.13;;;21.96;51.35
64821;BME280;51256;55.654;37.264;2022-08-18T04:34:55;99405.41;;;21.99;51.21
64821;BME280;51256;55.654;37.264;2022-08-18T04:37:20;99409.56;;;22.01;51.17
64821;BME280;51256;55.654;37.264;2022-08-18T04:39:46;99418.81;;;22.12;51.02
64821;BME280;51256;55.654;37.264;2022-08-18T04:42:13;99425.75;;;22.27;50.81
64821;BME280;51256;55.654;37.264;2022-08-18T04:44:39;99426.66;;;22.46;50.58
64821;BME280;51256;55.654;37.264;2022-08-18T04:47:05;99426.44;;;22.66;50.09
64821;BME280;51256;55.654;37.264;2022-08-18T04:49:33;99423.31;;;22.88;49.59
64821;BME280;51256;55.654;37.264;2022-08-18T04:51:59;99411.84;;;23.04;49.54
64821;BME280;51256;55.654;37.264;2022-08-18T04:54:43;99423.38;;;23.18;49.45
64821;BME280;51256;55.654;37.264;2022-08-18T04:57:14;99422.47;;;23.24;49.25
64821;BME280;51256;55.654;37.264;2022-08-18T04:59:43;99418.22;;;23.28;49.49
64821;BME280;51256;55.654;37.264;2022-08-18T05:02:09;99427.47;;;23.39;49.54
64821;BME280;51256;55.654;37.264;2022-08-18T05:04:36;99420.41;;;23.38;49.24
64821;BME280;51256;55.654;37.264;2022-08-18T05:07:07;99424.78;;;23.51;49.12
64821;BME280;51256;55.654;37.264;2022-08-18T05:09:33;99426.28;;;23.66;48.77
64821;BME280;51256;55.654;37.264;2022-08-18T05:12:01;99422.75;;;23.77;48.55
64821;BME280;51256;55.654;37.264;2022-08-18T05:14:28;99419.13;;;23.83;48.20
64821;BME280;51256;55.654;37.264;2022-08-18T05:16:57;99416.66;;;23.82;48.20
64821;BME280;51256;55.654;37.264;2022-08-18T05:19:22;99423.63;;;23.89;48.16
64821;BME280;51256;55.654;37.264;2022-08-18T05:21:51;99439.59;;;23.98;47.70
64821;BME280;51256;55.654;37.264;2022-08-18T05:24:18;99432.50;;;23.96;47.62
64821;BME280;51256;55.654;37.264;2022-08-18T05:26:45;99425.66;;;23.94;47.77
64821;BME280;51256;55.654;37.264;2022-08-18T05:29:11;99436.72;;;23.92;48.27
64821;BME280;51256;55.654;37.264;2022-08-18T05:31:37;99423.84;;;23.88;48.09
64821;BME280;51256;55.654;37.264;2022-08-18T05:34:02;99435.47;;;23.95;48.34
64821;BME280;51256;55.654;37.264;2022-08-18T05:36:50;99425.88;;;23.92;47.73
64821;BME280;51256;55.654;37.264;2022-08-18T05:41:50;99439.91;;;24.01;46.46
64821;BME280;51256;55.654;37.264;2022-08-18T05:44:21;99439.47;;;24.04;46.76
64821;BME280;51256;55.654;37.264;2022-08-18T05:46:58;99433.22;;;24.04;46.29
64821;BME280;51256;55.654;37.264;2022-08-18T05:49:29;99438.91;;;24.14;46.21
64821;BME280;51256;55.654;37.264;2022-08-18T05:52:02;99443.16;;;24.22;45.91
64821;BME280;51256;55.654;37.264;2022-08-18T05:54:35;99438.91;;;24.26;46.16
64821;BME280;51256;55.654;37.264;2022-08-18T05:57:24;99448.34;;;24.35;46.03
64821;BME280;51256;55.654;37.264;2022-08-18T05:59:52;99433.25;;;24.39;45.61
64821;BME280;51256;55.654;37.264;2022-08-18T06:02:36;99434.91;;;24.40;45.29
64821;BME280;51256;55.654;37.264;2022-08-18T06:05:07;99435.34;;;24.37;45.28
64821;BME280;51256;55.654;37.264;2022-08-18T06:07:42;99425.44;;;24.31;44.95
64821;BME280;51256;55.654;37.264;2022-08-18T06:10:10;99446.69;;;24.46;44.51
64821;BME280;51256;55.654;37.264;2022-08-18T06:12:44;99435.00;;;24.57;44.12
64821;BME280;51256;55.654;37.264;2022-08-18T06:15:15;99445.41;;;24.72;44.28
64821;BME280;51256;55.654;37.264;2022-08-18T06:23:36;99428.50;;;24.94;43.66
64821;BME280;51256;55.654;37.264;2022-08-18T06:31:52;99452.00;;;25.29;42.63
64821;BME280;51256;55.654;37.264;2022-08-18T06:37:30;99459.56;;;25.27;42.19
64821;BME280;51256;55.654;37.264;2022-08-18T06:39:57;99448.00;;;25.20;42.17
64821;BME280;51256;55.654;37.264;2022-08-18T06:42:25;99449.66;;;25.21;42.17
64821;BME280;51256;55.654;37.264;2022-08-18T06:45:01;99448.94;;;25.25;41.61
64821;BME280;51256;55.654;37.264;2022-08-18T06:47:54;99433.63;;;25.19;41.95
64821;BME280;51256;55.654;37.264;2022-08-18T06:50:31;99433.13;;;25.22;41.43
64821;BME280;51256;55.654;37.264;2022-08-18T06:53:01;99450.47;;;25.33;41.31
64821;BME280;51256;55.654;37.264;2022-08-18T06:55:38;99439.25;;;25.30;41.14
64821;BME280;51256;55.654;37.264;2022-08-18T06:58:26;99446.81;;;25.39;41.06
64821;BME280;51256;55.654;37.264;2022-08-18T07:00:58;99453.03;;;25.52;41.10
64821;BME280;51256;55.654;37.264;2022-08-18T07:03:54;99455.31;;;25.60;40.81
64821;BME280;51256;55.654;37.264;2022-08-18T07:08:51;99462.84;;;25.70;40.38
64821;BME280;51256;55.654;37.264;2022-08-18T07:11:19;99466.25;;;25.77;40.34
64821;BME280;51256;55.654;37.264;2022-08-18T07:13:48;99456.59;;;25.86;39.81
64821;BME280;51256;55.654;37.264;2022-08-18T07:18:51;99455.28;;;25.89;39.58
64821;BME280;51256;55.654;37.264;2022-08-18T07:21:29;99452.00;;;25.87;39.40
64821;BME280;51256;55.654;37.264;2022-08-18T07:24:07;99466.59;;;25.98;39.44
64821;BME280;51256;55.654;37.264;2022-08-18T07:26:59;99473.22;;;26.02;39.27
64821;BME280;51256;55.654;37.264;2022-08-18T07:29:28;99478.16;;;26.05;39.24
64821;BME280;51256;55.654;37.264;2022-08-18T07:31:54;99468.47;;;26.09;39.38
64821;BME280;51256;55.654;37.264;2022-08-18T07:34:39;99467.72;;;26.14;39.16
64821;BME280;51256;55.654;37.264;2022-08-18T07:37:18;99467.16;;;26.12;38.52
64821;BME280;51256;55.654;37.264;2022-08-18T07:39:54;99472.81;;;26.10;38.58
64821;BME280;51256;55.654;37.264;2022-08-18T07:45:05;99445.59;;;26.10;38.06
64821;BME280;51256;55.654;37.264;2022-08-18T07:47:54;99455.84;;;26.20;37.57
64821;BME280;51256;55.654;37.264;2022-08-18T07:50:22;99456.44;;;26.22;38.00
64821;BME280;51256;55.654;37.264;2022-08-18T07:53:05;99454.38;;;26.29;37.71
64821;BME280;51256;55.654;37.264;2022-08-18T07:55:35;99471.34;;;26.36;37.68
64821;BME280;51256;55.654;37.264;2022-08-18T08:01:33;99460.78;;;26.40;37.38
64821;BME280;51256;55.654;37.264;2022-08-18T08:04:16;99458.56;;;26.37;37.31
64821;BME280;51256;55.654;37.264;2022-08-18T08:06:53;99467.88;;;26.41;37.52
64821;BME280;51256;55.654;37.264;2022-08-18T08:09:45;99482.28;;;26.59;37.69
64821;BME280;51256;55.654;37.264;2022-08-18T08:12:45;99464.22;;;26.52;37.55
64821;BME280;51256;55.654;37.264;2022-08-18T08:15:25;99480.97;;;26.61;37.65
64821;BME280;51256;55.654;37.264;2022-08-18T08:20:43;99455.38;;;26.62;37.49
64821;BME280;51256;55.654;37.264;2022-08-18T08:23:58;99463.94;;;26.71;37.23
64821;BME280;51256;55.654;37.264;2022-08-18T08:37:10;99452.66;;;26.79;36.62
64821;BME280;51256;55.654;37.264;2022-08-18T08:39:51;99469.69;;;26.92;36.29
64821;BME280;51256;55.654;37.264;2022-08-18T08:44:56;99460.06;;;26.84;36.81
64821;BME280;51256;55.654;37.264;2022-08-18T08:47:43;99468.41;;;26.94;36.72
64821;BME280;51256;55.654;37.264;2022-08-18T08:50:24;99464.63;;;27.00;36.95
64821;BME280;51256;55.654;37.264;2022-08-18T08:53:05;99466.59;;;27.05;36.92
64821;BME280;51256;55.654;37.264;2022-08-18T08:55:42;99472.06;;;27.05;36.73
64821;BME280;51256;55.654;37.264;2022-08-18T08:58:44;99466.22;;;26.96;36.89
64821;BME280;51256;55.654;37.264;2022-08-18T09:25:55;99459.47;;;27.43;36.77
64821;BME280;51256;55.654;37.264;2022-08-18T09:28:41;99443.03;;;27.38;36.85
64821;BME280;51256;55.654;37.264;2022-08-18T09:31:19;99458.44;;;27.49;36.60
64821;BME280;51256;55.654;37.264;2022-08-18T09:36:47;99461.63;;;27.69;36.69
64821;BME280;51256;55.654;37.264;2022-08-18T09:39:38;99448.31;;;27.72;36.39
64821;BME280;51256;55.654;37.264;2022-08-18T09:42:32;99449.78;;;27.85;35.65
64821;BME280;51256;55.654;37.264;2022-08-18T09:45:05;99442.16;;;27.87;34.98
64821;BME280;51256;55.654;37.264;2022-08-18T09:52:52;99448.22;;;27.94;34.69
64821;BME280;51256;55.654;37.264;2022-08-18T09:57:43;99448.81;;;28.02;34.27
64821;BME280;51256;55.654;37.264;2022-08-18T10:07:50;99432.09;;;28.20;33.74
64821;BME280;51256;55.654;37.264;2022-08-18T10:21:37;99434.47;;;28.54;33.25
64821;BME280;51256;55.654;37.264;2022-08-18T10:24:17;99424.69;;;28.58;32.56
64821;BME280;51256;55.654;37.264;2022-08-18T10:37:35;99429.75;;;28.39;32.74
64821;BME280;51256;55.654;37.264;2022-08-18T10:40:14;99406.53;;;28.37;33.00
64821;BME280;51256;55.654;37.264;2022-08-18T10:42:45;99418.63;;;28.51;32.42
64821;BME280;51256;55.654;37.264;2022-08-18T10:48:22;99423.47;;;28.39;32.32
64821;BME280;51256;55.654;37.264;2022-08-18T10:51:15;99422.09;;;28.36;32.33
64821;BME280;51256;55.654;37.264;2022-08-18T10:56:22;99419.44;;;28.52;32.74
64821;BME280;51256;55.654;37.264;2022-08-18T10:59:06;99418.41;;;28.63;32.39
64821;BME280;51256;55.654;37.264;2022-08-18T11:04:31;99412.16;;;28.62;31.81
64821;BME280;51256;55.654;37.264;2022-08-18T11:07:12;99416.19;;;28.50;31.75
64821;BME280;51256;55.654;37.264;2022-08-18T11:09:41;99427.16;;;28.60;31.27
64821;BME280;51256;55.654;37.264;2022-08-18T11:12:08;99421.44;;;28.67;30.82
64821;BME280;51256;55.654;37.264;2022-08-18T11:19:45;99411.53;;;28.50;30.50
64821;BME280;51256;55.654;37.264;2022-08-18T11:22:31;99412.09;;;28.52;30.01
64821;BME280;51256;55.654;37.264;2022-08-18T11:24:57;99393.28;;;28.56;29.26
64821;BME280;51256;55.654;37.264;2022-08-18T11:27:26;99419.91;;;28.76;28.93
64821;BME280;51256;55.654;37.264;2022-08-18T11:29:53;99417.69;;;28.73;29.48
64821;BME280;51256;55.654;37.264;2022-08-18T11:35:06;99414.69;;;28.74;30.15
64821;BME280;51256;55.654;37.264;2022-08-18T11:45:22;99402.38;;;28.72;28.38
64821;BME280;51256;55.654;37.264;2022-08-18T12:04:09;99403.00;;;28.89;28.01
64821;BME280;51256;55.654;37.264;2022-08-18T12:06:56;99414.78;;;28.95;28.00
64821;BME280;51256;55.654;37.264;2022-08-18T12:09:43;99412.56;;;28.92;27.73
64821;BME280;51256;55.654;37.264;2022-08-18T12:12:24;99415.56;;;28.90;27.22
64821;BME280;51256;55.654;37.264;2022-08-18T12:14:52;99410.38;;;28.89;26.69
64821;BME280;51256;55.654;37.264;2022-08-18T12:17:18;99391.50;;;28.82;26.97
64821;BME280;51256;55.654;37.264;2022-08-18T12:19:43;99411.44;;;28.83;26.90
64821;BME280;51256;55.654;37.264;2022-08-18T12:22:17;99405.44;;;28.86;26.92
64821;BME280;51256;55.654;37.264;2022-08-18T12:24:44;99396.72;;;28.84;27.30
64821;BME280;51256;55.654;37.264;2022-08-18T12:27:12;99400.81;;;28.86;27.02
64821;BME280;51256;55.654;37.264;2022-08-18T12:29:40;99386.28;;;28.80;26.35
64821;BME280;51256;55.654;37.264;2022-08-18T12:32:05;99403.84;;;28.95;26.11
64821;BME280;51256;55.654;37.264;2022-08-18T12:34:31;99396.47;;;29.01;25.81
64821;BME280;51256;55.654;37.264;2022-08-18T12:36:58;99405.03;;;29.15;25.52
64821;BME280;51256;55.654;37.264;2022-08-18T12:39:30;99400.94;;;29.17;25.62
64821;BME280;51256;55.654;37.264;2022-08-18T12:41:56;99389.41;;;29.05;25.47
64821;BME280;51256;55.654;37.264;2022-08-18T12:44:21;99389.44;;;29.15;25.35
64821;BME280;51256;55.654;37.264;2022-08-18T12:46:47;99391.06;;;29.11;25.05
64821;BME280;51256;55.654;37.264;2022-08-18T12:49:19;99401.22;;;29.26;24.29
64821;BME280;51256;55.654;37.264;2022-08-18T12:51:46;99384.78;;;29.21;24.51
64821;BME280;51256;55.654;37.264;2022-08-18T12:54:12;99399.56;;;29.25;24.48
64821;BME280;51256;55.654;37.264;2022-08-18T12:56:39;99404.00;;;29.36;24.50
64821;BME280;51256;55.654;37.264;2022-08-18T12:59:07;99397.72;;;29.41;24.40
64821;BME280;51256;55.654;37.264;2022-08-18T13:01:35;99394.16;;;29.40;24.17
64821;BME280;51256;55.654;37.264;2022-08-18T13:04:01;99387.88;;;29.40;23.99
64821;BME280;51256;55.654;37.264;2022-08-18T13:06:28;99396.91;;;29.46;24.31
64821;BME280;51256;55.654;37.264;2022-08-18T13:08:54;99397.44;;;29.42;24.23
64821;BME280;51256;55.654;37.264;2022-08-18T13:11:21;99395.81;;;29.47;24.01
64821;BME280;51256;55.654;37.264;2022-08-18T13:13:47;99399.63;;;29.40;23.90
64821;BME280;51256;55.654;37.264;2022-08-18T13:16:13;99384.81;;;29.26;23.82
64821;BME280;51256;55.654;37.264;2022-08-18T13:18:40;99400.69;;;29.34;23.79
64821;BME280;51256;55.654;37.264;2022-08-18T13:21:13;99399.63;;;29.35;23.98
64821;BME280;51256;55.654;37.264;2022-08-18T13:23:39;99392.78;;;29.33;23.96
64821;BME280;51256;55.654;37.264;2022-08-18T13:26:08;99389.44;;;29.25;24.02
64821;BME280;51256;55.654;37.264;2022-08-18T13:28:36;99396.31;;;29.33;23.79
64821;BME280;51256;55.654;37.264;2022-08-18T13:31:04;99391.59;;;29.18;24.05
64821;BME280;51256;55.654;37.264;2022-08-18T13:33:30;99381.22;;;29.10;24.33
64821;BME280;51256;55.654;37.264;2022-08-18T13:35:57;99402.28;;;29.20;24.46
64821;BME280;51256;55.654;37.264;2022-08-18T13:38:23;99406.94;;;29.24;24.29
64821;BME280;51256;55.654;37.264;2022-08-18T13:40:50;99403.16;;;29.31;24.00
64821;BME280;51256;55.654;37.264;2022-08-18T13:43:20;99386.75;;;29.36;23.96
64821;BME280;51256;55.654;37.264;2022-08-18T13:45:47;99385.44;;;29.74;23.86
64821;BME280;51256;55.654;37.264;2022-08-18T13:48:15;99402.38;;;30.44;23.43
64821;BME280;51256;55.654;37.264;2022-08-18T13:50:42;99393.50;;;33.09;20.88
64821;BME280;51256;55.654;37.264;2022-08-18T13:53:12;99390.97;;;34.92;19.38
64821;BME280;51256;55.654;37.264;2022-08-18T13:55:39;99397.91;;;36.08;18.04
64821;BME280;51256;55.654;37.264;2022-08-18T13:58:04;99396.00;;;36.89;17.19
64821;BME280;51256;55.654;37.264;2022-08-18T14:00:29;99402.56;;;37.63;16.97
64821;BME280;51256;55.654;37.264;2022-08-18T14:02:55;99389.69;;;37.94;16.66
64821;BME280;51256;55.654;37.264;2022-08-18T14:05:22;99392.44;;;38.03;16.89
64821;BME280;51256;55.654;37.264;2022-08-18T14:07:48;99395.88;;;37.56;16.86
64821;BME280;51256;55.654;37.264;2022-08-18T14:10:15;99395.44;;;37.45;16.91
64821;BME280;51256;55.654;37.264;2022-08-18T14:12:41;99396.88;;;37.86;16.69
64821;BME280;51256;55.654;37.264;2022-08-18T14:15:11;99405.13;;;38.04;16.44
64821;BME280;51256;55.654;37.264;2022-08-18T14:17:38;99396.03;;;38.42;15.91
64821;BME280;51256;55.654;37.264;2022-08-18T14:20:04;99402.66;;;39.39;15.44
64821;BME280;51256;55.654;37.264;2022-08-18T14:22:50;99393.75;;;40.01;15.46
64821;BME280;51256;55.654;37.264;2022-08-18T14:25:34;99399.38;;;40.88;14.97
64821;BME280;51256;55.654;37.264;2022-08-18T14:28:18;99403.88;;;40.18;15.38
64821;BME280;51256;55.654;37.264;2022-08-18T14:30:45;99398.91;;;39.90;15.51
64821;BME280;51256;55.654;37.264;2022-08-18T14:33:11;99406.72;;;39.97;15.01
64821;BME280;51256;55.654;37.264;2022-08-18T14:35:40;99403.19;;;40.33;15.29
64821;BME280;51256;55.654;37.264;2022-08-18T14:38:06;99388.47;;;39.53;15.72
64821;BME280;51256;55.654;37.264;2022-08-18T14:40:33;99408.03;;;38.93;15.71
64821;BME280;51256;55.654;37.264;2022-08-18T14:43:00;99409.09;;;38.80;16.08
64821;BME280;51256;55.654;37.264;2022-08-18T14:45:27;99395.66;;;38.52;16.47
64821;BME280;51256;55.654;37.264;2022-08-18T14:47:54;99404.56;;;38.37;16.06
64821;BME280;51256;55.654;37.264;2022-08-18T14:50:20;99402.94;;;38.66;16.29
64821;BME280;51256;55.654;37.264;2022-08-18T14:52:46;99404.72;;;39.30;15.80
64821;BME280;51256;55.654;37.264;2022-08-18T14:55:13;99402.63;;;39.61;15.58
64821;BME280;51256;55.654;37.264;2022-08-18T14:57:39;99402.63;;;38.97;16.25
64821;BME280;51256;55.654;37.264;2022-08-18T15:00:09;99409.25;;;38.45;16.67
64821;BME280;51256;55.654;37.264;2022-08-18T15:02:40;99406.03;;;38.25;16.71
64821;BME280;51256;55.654;37.264;2022-08-18T15:05:07;99402.69;;;38.02;17.04
64821;BME280;51256;55.654;37.264;2022-08-18T15:07:34;99405.00;;;37.74;17.00
64821;BME280;51256;55.654;37.264;2022-08-18T15:10:04;99399.50;;;37.56;17.40
64821;BME280;51256;55.654;37.264;2022-08-18T15:12:30;99402.72;;;37.67;17.39
64821;BME280;51256;55.654;37.264;2022-08-18T15:14:55;99406.03;;;38.25;17.10
64821;BME280;51256;55.654;37.264;2022-08-18T15:17:25;99409.09;;;38.41;17.06
64821;BME280;51256;55.654;37.264;2022-08-18T15:19:52;99407.97;;;38.34;17.42
64821;BME280;51256;55.654;37.264;2022-08-18T15:22:18;99385.78;;;37.86;17.23
64821;BME280;51256;55.654;37.264;2022-08-18T15:25:03;99407.09;;;37.15;18.14
64821;BME280;51256;55.654;37.264;2022-08-18T15:27:47;99410.91;;;36.79;18.53
64821;BME280;51256;55.654;37.264;2022-08-18T15:30:15;99402.25;;;36.32;18.77
64821;BME280;51256;55.654;37.264;2022-08-18T15:32:42;99411.19;;;35.97;19.41
64821;BME280;51256;55.654;37.264;2022-08-18T15:35:08;99415.53;;;35.90;19.37
64821;BME280;51256;55.654;37.264;2022-08-18T15:37:35;99401.13;;;36.01;19.05
64821;BME280;51256;55.654;37.264;2022-08-18T15:40:09;99402.53;;;35.90;19.12
64821;BME280;51256;55.654;37.264;2022-08-18T15:42:36;99392.59;;;35.89;19.16
64821;BME280;51256;55.654;37.264;2022-08-18T15:45:03;99406.19;;;35.85;19.04